sensor_id;sensor_type;location;lat;lon;timestamp;P1;durP1;ratioP1;P2;durP2;ratioP2
12348;SDS011;5974;42.710;27.258;2023-06-14T00:00:02;4.77;;;3.40;;
12348;SDS011;5974;42.710;27.258;2023-06-14T00:02:30;3.70;;;3.50;;
12348;SDS011;5974;42.710;27.258;2023-06-14T00:04:57;3.73;;;3.23;;
12348;SDS011;5974;42.710;27.258;2023-06-14T00:07:33;3.30;;;3.00;;
12348;SDS011;5974;42.710;27.258;2023-06-14T00:10:01;3.33;;;3.10;;
12348;SDS011;5974;42.710;27.258;2023-06-14T00:12:29;3.27;;;3.00;;
12348;SDS011;5974;42.710;27.258;2023-06-14T00:14:58;3.37;;;3.07;;
12348;SDS011;5974;42.710;27.258;2023-06-14T00:17:26;3.50;;;3.20;;
12348;SDS011;5974;42.710;27.258;2023-06-14T00:19:55;5.60;;;3.17;;
12348;SDS011;5974;42.710;27.258;2023-06-14T00:22:23;3.47;;;3.17;;
12348;SDS011;5974;42.710;27.258;2023-06-14T00:24:50;3.37;;;3.10;;
12348;SDS011;5974;42.710;27.258;2023-06-14T00:27:17;3.23;;;2.80;;
12348;SDS011;5974;42.710;27.258;2023-06-14T00:29:44;3.10;;;2.80;;
12348;SDS011;5974;42.710;27.258;2023-06-14T00:32:13;2.73;;;2.47;;
12348;SDS011;5974;42.710;27.258;2023-06-14T00:34:40;2.60;;;2.47;;
12348;SDS011;5974;42.710;27.258;2023-06-14T00:37:06;2.60;;;2.40;;
12348;SDS011;5974;42.710;27.258;2023-06-14T00:39:33;3.83;;;2.80;;
12348;SDS011;5974;42.710;27.258;2023-06-14T00:42:00;2.87;;;2.67;;
12348;SDS011;5974;42.710;27.258;2023-06-14T00:44:27;2.80;;;2.60;;
12348;SDS011;5974;42.710;27.258;2023-06-14T00:46:54;4.97;;;2.70;;
12348;SDS011;5974;42.710;27.258;2023-06-14T00:49:22;2.77;;;2.53;;
12348;SDS011;5974;42.710;27.258;2023-06-14T00:51:50;2.60;;;2.40;;
12348;SDS011;5974;42.710;27.258;2023-06-14T00:54:17;2.70;;;2.50;;
12348;SDS011;5974;42.710;27.258;2023-06-14T00:56:44;3.27;;;2.70;;
12348;SDS011;5974;42.710;27.258;2023-06-14T00:59:11;2.90;;;2.70;;
12348;SDS011;5974;42.710;27.258;2023-06-14T01:01:38;2.50;;;2.30;;
12348;SDS011;5974;42.710;27.258;2023-06-14T01:04:05;4.93;;;2.57;;
12348;SDS011;5974;42.710;27.258;2023-06-14T01:06:35;3.17;;;2.83;;
12348;SDS011;5974;42.710;27.258;2023-06-14T01:09:12;2.87;;;2.23;;
12348;SDS011;5974;42.710;27.258;2023-06-14T01:11:47;2.60;;;2.40;;
12348;SDS011;5974;42.710;27.258;2023-06-14T01:14:20;2.50;;;2.40;;
12348;SDS011;5974;42.710;27.258;2023-06-14T01:16:48;2.47;;;2.37;;
12348;SDS011;5974;42.710;27.258;2023-06-14T01:19:18;3.03;;;2.40;;
12348;SDS011;5974;42.710;27.258;2023-06-14T01:21:49;2.50;;;2.40;;
12348;SDS011;5974;42.710;27.258;2023-06-14T01:24:17;2.40;;;2.30;;
12348;SDS011;5974;42.710;27.258;2023-06-14T01:26:50;2.87;;;2.63;;
12348;SDS011;5974;42.710;27.258;2023-06-14T01:29:21;2.87;;;2.50;;
12348;SDS011;5974;42.710;27.258;2023-06-14T01:31:48;5.03;;;2.40;;
12348;SDS011;5974;42.710;27.258;2023-06-14T01:34:16;2.30;;;2.20;;
12348;SDS011;5974;42.710;27.258;2023-06-14T01:36:43;2.50;;;2.30;;
12348;SDS011;5974;42.710;27.258;2023-06-14T01:39:12;3.47;;;2.77;;
12348;SDS011;5974;42.710;27.258;2023-06-14T01:41:42;2.97;;;2.63;;
12348;SDS011;5974;42.710;27.258;2023-06-14T01:44:12;2.50;;;2.30;;
12348;SDS011;5974;42.710;27.258;2023-06-14T01:46:40;2.70;;;2.50;;
12348;SDS011;5974;42.710;27.258;2023-06-14T01:49:09;2.90;;;2.60;;
12348;SDS011;5974;42.710;27.258;2023-06-14T01:51:36;2.83;;;2.63;;
12348;SDS011;5974;42.710;27.258;2023-06-14T01:54:03;2.70;;;2.50;;
12348;SDS011;5974;42.710;27.258;2023-06-14T01:56:30;2.67;;;2.43;;
12348;SDS011;5974;42.710;27.258;2023-06-14T01:58:59;2.40;;;2.30;;
12348;SDS011;5974;42.710;27.258;2023-06-14T02:01:25;2.60;;;2.27;;
12348;SDS011;5974;42.710;27.258;2023-06-14T02:03:53;2.40;;;2.30;;
12348;SDS011;5974;42.710;27.258;2023-06-14T02:06:20;2.73;;;2.57;;
12348;SDS011;5974;42.710;27.258;2023-06-14T02:08:46;2.70;;;2.50;;
12348;SDS011;5974;42.710;27.258;2023-06-14T02:11:13;2.73;;;2.40;;
12348;SDS011;5974;42.710;27.258;2023-06-14T02:13:40;3.03;;;2.80;;
12348;SDS011;5974;42.710;27.258;2023-06-14T02:16:09;2.70;;;2.50;;
12348;SDS011;5974;42.710;27.258;2023-06-14T02:18:36;2.60;;;2.50;;
12348;SDS011;5974;42.710;27.258;2023-06-14T02:21:02;4.33;;;2.30;;
12348;SDS011;5974;42.710;27.258;2023-06-14T02:23:29;4.50;;;2.60;;
12348;SDS011;5974;42.710;27.258;2023-06-14T02:25:57;4.77;;;2.37;;
12348;SDS011;5974;42.710;27.258;2023-06-14T02:28:24;3.60;;;2.43;;
12348;SDS011;5974;42.710;27.258;2023-06-14T02:30:50;3.40;;;2.60;;
12348;SDS011;5974;42.710;27.258;2023-06-14T02:33:19;2.70;;;2.50;;
12348;SDS011;5974;42.710;27.258;2023-06-14T02:35:47;3.07;;;2.70;;
12348;SDS011;5974;42.710;27.258;2023-06-14T02:38:14;2.60;;;2.40;;
12348;SDS011;5974;42.710;27.258;2023-06-14T02:40:41;2.53;;;2.33;;
12348;SDS011;5974;42.710;27.258;2023-06-14T02:43:08;4.20;;;2.40;;
12348;SDS011;5974;42.710;27.258;2023-06-14T02:45:35;2.97;;;2.40;;
12348;SDS011;5974;42.710;27.258;2023-06-14T02:48:01;4.87;;;2.60;;
12348;SDS011;5974;42.710;27.258;2023-06-14T02:50:30;3.87;;;2.63;;
12348;SDS011;5974;42.710;27.258;2023-06-14T02:52:57;2.93;;;2.47;;
12348;SDS011;5974;42.710;27.258;2023-06-14T02:55:24;2.20;;;2.07;;
12348;SDS011;5974;42.710;27.258;2023-06-14T02:57:51;3.07;;;2.60;;
12348;SDS011;5974;42.710;27.258;2023-06-14T03:00:19;4.17;;;2.60;;
12348;SDS011;5974;42.710;27.258;2023-06-14T03:02:47;3.70;;;2.60;;
12348;SDS011;5974;42.710;27.258;2023-06-14T03:05:16;4.00;;;2.47;;
12348;SDS011;5974;42.710;27.258;2023-06-14T03:07:47;3.53;;;2.50;;
12348;SDS011;5974;42.710;27.258;2023-06-14T03:10:15;3.47;;;2.90;;
12348;SDS011;5974;42.710;27.258;2023-06-14T03:12:42;3.07;;;2.70;;
12348;SDS011;5974;42.710;27.258;2023-06-14T03:15:10;2.80;;;2.60;;
12348;SDS011;5974;42.710;27.258;2023-06-14T03:17:38;3.50;;;2.70;;
12348;SDS011;5974;42.710;27.258;2023-06-14T03:20:06;3.83;;;2.87;;
12348;SDS011;5974;42.710;27.258;2023-06-14T03:22:34;3.93;;;2.70;;
12348;SDS011;5974;42.710;27.258;2023-06-14T03:25:04;2.70;;;2.50;;
12348;SDS011;5974;42.710;27.258;2023-06-14T03:27:32;3.27;;;2.90;;
12348;SDS011;5974;42.710;27.258;2023-06-14T03:29:59;5.53;;;2.40;;
12348;SDS011;5974;42.710;27.258;2023-06-14T03:32:25;2.73;;;2.40;;
12348;SDS011;5974;42.710;27.258;2023-06-14T03:34:52;2.67;;;2.47;;
12348;SDS011;5974;42.710;27.258;2023-06-14T03:37:20;2.50;;;2.30;;
12348;SDS011;5974;42.710;27.258;2023-06-14T03:39:47;2.93;;;2.50;;
12348;SDS011;5974;42.710;27.258;2023-06-14T03:42:15;3.47;;;2.60;;
12348;SDS011;5974;42.710;27.258;2023-06-14T03:44:42;6.63;;;2.70;;
12348;SDS011;5974;42.710;27.258;2023-06-14T03:47:09;5.47;;;2.90;;
12348;SDS011;5974;42.710;27.258;2023-06-14T03:49:36;10.30;;;2.77;;
12348;SDS011;5974;42.710;27.258;2023-06-14T03:52:03;5.80;;;2.70;;
12348;SDS011;5974;42.710;27.258;2023-06-14T03:54:30;3.87;;;2.67;;
12348;SDS011;5974;42.710;27.258;2023-06-14T03:56:58;3.93;;;2.67;;
12348;SDS011;5974;42.710;27.258;2023-06-14T03:59:26;2.70;;;2.50;;
12348;SDS011;5974;42.710;27.258;2023-06-14T04:01:53;2.77;;;2.40;;
12348;SDS011;5974;42.710;27.258;2023-06-14T04:04:21;4.50;;;2.00;;
12348;SDS011;5974;42.710;27.258;2023-06-14T04:06:53;3.60;;;2.40;;
12348;SDS011;5974;42.710;27.258;2023-06-14T04:09:21;3.83;;;2.20;;
12348;SDS011;5974;42.710;27.258;2023-06-14T04:11:50;2.40;;;2.20;;
12348;SDS011;5974;42.710;27.258;2023-06-14T04:14:17;2.20;;;2.03;;
12348;SDS011;5974;42.710;27.258;2023-06-14T04:16:46;2.73;;;2.23;;
12348;SDS011;5974;42.710;27.258;2023-06-14T04:19:13;6.33;;;2.23;;
12348;SDS011;5974;42.710;27.258;2023-06-14T04:21:40;3.00;;;2.05;;
12348;SDS011;5974;42.710;27.258;2023-06-14T04:24:08;2.75;;;2.50;;
12348;SDS011;5974;42.710;27.258;2023-06-14T04:26:38;3.15;;;2.58;;
12348;SDS011;5974;42.710;27.258;2023-06-14T04:29:05;3.08;;;2.78;;
12348;SDS011;5974;42.710;27.258;2023-06-14T04:31:32;5.82;;;2.72;;
12348;SDS011;5974;42.710;27.258;2023-06-14T04:34:00;2.83;;;2.63;;
12348;SDS011;5974;42.710;27.258;2023-06-14T04:36:30;3.72;;;2.20;;
12348;SDS011;5974;42.710;27.258;2023-06-14T04:38:59;4.05;;;2.50;;
12348;SDS011;5974;42.710;27.258;2023-06-14T04:41:28;2.45;;;2.20;;
12348;SDS011;5974;42.710;27.258;2023-06-14T04:43:56;6.13;;;2.40;;
12348;SDS011;5974;42.710;27.258;2023-06-14T04:46:26;3.08;;;2.53;;
12348;SDS011;5974;42.710;27.258;2023-06-14T04:48:53;2.83;;;2.60;;
12348;SDS011;5974;42.710;27.258;2023-06-14T04:51:22;2.33;;;2.20;;
12348;SDS011;5974;42.710;27.258;2023-06-14T04:53:55;3.17;;;2.30;;
12348;SDS011;5974;42.710;27.258;2023-06-14T04:56:23;2.88;;;2.58;;
12348;SDS011;5974;42.710;27.258;2023-06-14T04:58:51;7.07;;;2.65;;
12348;SDS011;5974;42.710;27.258;2023-06-14T05:01:18;4.57;;;2.50;;
12348;SDS011;5974;42.710;27.258;2023-06-14T05:03:46;5.35;;;2.72;;
12348;SDS011;5974;42.710;27.258;2023-06-14T05:06:14;3.38;;;2.40;;
12348;SDS011;5974;42.710;27.258;2023-06-14T05:08:43;4.43;;;2.40;;
12348;SDS011;5974;42.710;27.258;2023-06-14T05:11:10;8.48;;;2.78;;
12348;SDS011;5974;42.710;27.258;2023-06-14T05:13:37;3.63;;;2.60;;
12348;SDS011;5974;42.710;27.258;2023-06-14T05:16:07;5.72;;;2.42;;
12348;SDS011;5974;42.710;27.258;2023-06-14T05:18:33;4.15;;;2.15;;
12348;SDS011;5974;42.710;27.258;2023-06-14T05:21:00;2.83;;;2.30;;
12348;SDS011;5974;42.710;27.258;2023-06-14T05:23:28;2.55;;;2.17;;
12348;SDS011;5974;42.710;27.258;2023-06-14T05:25:57;3.20;;;2.45;;
12348;SDS011;5974;42.710;27.258;2023-06-14T05:28:24;2.28;;;2.08;;
12348;SDS011;5974;42.710;27.258;2023-06-14T05:30:51;3.45;;;2.10;;
12348;SDS011;5974;42.710;27.258;2023-06-14T05:33:18;2.38;;;2.08;;
12348;SDS011;5974;42.710;27.258;2023-06-14T05:35:45;2.30;;;2.10;;
12348;SDS011;5974;42.710;27.258;2023-06-14T05:38:12;2.08;;;1.90;;
12348;SDS011;5974;42.710;27.258;2023-06-14T05:40:38;3.22;;;2.30;;
12348;SDS011;5974;42.710;27.258;2023-06-14T05:43:07;3.28;;;2.60;;
12348;SDS011;5974;42.710;27.258;2023-06-14T05:45:35;3.83;;;2.10;;
12348;SDS011;5974;42.710;27.258;2023-06-14T05:48:02;4.05;;;1.90;;
12348;SDS011;5974;42.710;27.258;2023-06-14T05:50:30;2.90;;;2.35;;
12348;SDS011;5974;42.710;27.258;2023-06-14T05:52:57;2.20;;;2.05;;
12348;SDS011;5974;42.710;27.258;2023-06-14T05:55:24;2.95;;;2.17;;
12348;SDS011;5974;42.710;27.258;2023-06-14T05:57:51;2.40;;;2.20;;
12348;SDS011;5974;42.710;27.258;2023-06-14T06:00:20;2.85;;;2.00;;
12348;SDS011;5974;42.710;27.258;2023-06-14T06:02:47;2.33;;;1.90;;
12348;SDS011;5974;42.710;27.258;2023-06-14T06:05:14;2.85;;;2.38;;
12348;SDS011;5974;42.710;27.258;2023-06-14T06:07:42;2.65;;;2.40;;
12348;SDS011;5974;42.710;27.258;2023-06-14T06:10:10;2.50;;;2.30;;
12348;SDS011;5974;42.710;27.258;2023-06-14T06:12:37;3.47;;;2.22;;
12348;SDS011;5974;42.710;27.258;2023-06-14T06:15:04;2.28;;;2.15;;
12348;SDS011;5974;42.710;27.258;2023-06-14T06:17:34;4.18;;;2.38;;
12348;SDS011;5974;42.710;27.258;2023-06-14T06:20:01;2.50;;;2.30;;
12348;SDS011;5974;42.710;27.258;2023-06-14T06:22:28;2.55;;;2.38;;
12348;SDS011;5974;42.710;27.258;2023-06-14T06:24:55;3.33;;;2.35;;
12348;SDS011;5974;42.710;27.258;2023-06-14T06:27:22;6.45;;;2.20;;
12348;SDS011;5974;42.710;27.258;2023-06-14T06:29:49;4.57;;;2.00;;
12348;SDS011;5974;42.710;27.258;2023-06-14T06:32:16;3.90;;;2.33;;
12348;SDS011;5974;42.710;27.258;2023-06-14T06:34:45;2.30;;;2.20;;
12348;SDS011;5974;42.710;27.258;2023-06-14T06:37:13;2.65;;;2.20;;
12348;SDS011;5974;42.710;27.258;2023-06-14T06:39:40;2.70;;;2.30;;
12348;SDS011;5974;42.710;27.258;2023-06-14T06:42:07;3.40;;;2.20;;
12348;SDS011;5974;42.710;27.258;2023-06-14T06:44:37;4.85;;;2.50;;
12348;SDS011;5974;42.710;27.258;2023-06-14T06:47:04;2.30;;;2.20;;
12348;SDS011;5974;42.710;27.258;2023-06-14T06:49:31;5.55;;;2.50;;
12348;SDS011;5974;42.710;27.258;2023-06-14T06:52:03;2.67;;;2.47;;
12348;SDS011;5974;42.710;27.258;2023-06-14T06:54:31;6.57;;;3.05;;
12348;SDS011;5974;42.710;27.258;2023-06-14T06:56:58;10.45;;;2.63;;
12348;SDS011;5974;42.710;27.258;2023-06-14T06:59:25;37.20;;;5.40;;
12348;SDS011;5974;42.710;27.258;2023-06-14T07:01:52;6.70;;;2.60;;
12348;SDS011;5974;42.710;27.258;2023-06-14T07:04:20;4.63;;;2.45;;
12348;SDS011;5974;42.710;27.258;2023-06-14T07:06:46;3.65;;;2.17;;
12348;SDS011;5974;42.710;27.258;2023-06-14T07:09:15;2.40;;;2.20;;
12348;SDS011;5974;42.710;27.258;2023-06-14T07:11:43;4.18;;;2.58;;
12348;SDS011;5974;42.710;27.258;2023-06-14T07:14:10;2.58;;;2.35;;
12348;SDS011;5974;42.710;27.258;2023-06-14T07:16:37;2.47;;;1.95;;
12348;SDS011;5974;42.710;27.258;2023-06-14T07:19:06;2.17;;;2.08;;
12348;SDS011;5974;42.710;27.258;2023-06-14T07:21:33;3.58;;;2.22;;
12348;SDS011;5974;42.710;27.258;2023-06-14T07:23:59;2.30;;;2.20;;
12348;SDS011;5974;42.710;27.258;2023-06-14T07:26:28;5.28;;;2.42;;
12348;SDS011;5974;42.710;27.258;2023-06-14T07:28:55;4.55;;;2.45;;
12348;SDS011;5974;42.710;27.258;2023-06-14T07:31:22;29.65;;;3.92;;
12348;SDS011;5974;42.710;27.258;2023-06-14T07:33:49;5.88;;;2.35;;
12348;SDS011;5974;42.710;27.258;2023-06-14T07:36:16;2.65;;;2.17;;
12348;SDS011;5974;42.710;27.258;2023-06-14T07:38:43;2.95;;;2.28;;
12348;SDS011;5974;42.710;27.258;2023-06-14T07:41:10;4.18;;;2.45;;
12348;SDS011;5974;42.710;27.258;2023-06-14T07:43:38;2.38;;;2.17;;
12348;SDS011;5974;42.710;27.258;2023-06-14T07:46:05;4.57;;;2.20;;
12348;SDS011;5974;42.710;27.258;2023-06-14T07:48:33;2.13;;;2.03;;
12348;SDS011;5974;42.710;27.258;2023-06-14T07:51:00;4.32;;;2.40;;
12348;SDS011;5974;42.710;27.258;2023-06-14T07:53:27;3.17;;;2.63;;
12348;SDS011;5974;42.710;27.258;2023-06-14T07:55:54;3.78;;;2.35;;
12348;SDS011;5974;42.710;27.258;2023-06-14T07:58:21;2.30;;;2.20;;
12348;SDS011;5974;42.710;27.258;2023-06-14T08:00:49;3.95;;;2.33;;
12348;SDS011;5974;42.710;27.258;2023-06-14T08:03:16;4.00;;;2.63;;
12348;SDS011;5974;42.710;27.258;2023-06-14T08:05:43;3.00;;;2.70;;
12348;SDS011;5974;42.710;27.258;2023-06-14T08:08:10;3.57;;;2.90;;
12348;SDS011;5974;42.710;27.258;2023-06-14T08:10:38;26.10;;;5.17;;
12348;SDS011;5974;42.710;27.258;2023-06-14T08:13:04;4.50;;;2.47;;
12348;SDS011;5974;42.710;27.258;2023-06-14T08:15:31;52.07;;;7.43;;
12348;SDS011;5974;42.710;27.258;2023-06-14T08:18:00;64.70;;;7.03;;
12348;SDS011;5974;42.710;27.258;2023-06-14T08:20:27;7.47;;;3.40;;
12348;SDS011;5974;42.710;27.258;2023-06-14T08:22:55;9.13;;;3.33;;
12348;SDS011;5974;42.710;27.258;2023-06-14T08:25:22;3.77;;;3.13;;
12348;SDS011;5974;42.710;27.258;2023-06-14T08:27:49;6.80;;;2.97;;
12348;SDS011;5974;42.710;27.258;2023-06-14T08:30:16;9.23;;;3.10;;
12348;SDS011;5974;42.710;27.258;2023-06-14T08:32:43;3.37;;;3.00;;
12348;SDS011;5974;42.710;27.258;2023-06-14T08:35:11;8.40;;;3.40;;
12348;SDS011;5974;42.710;27.258;2023-06-14T08:37:39;8.40;;;3.43;;
12348;SDS011;5974;42.710;27.258;2023-06-14T08:40:07;6.37;;;3.70;;
12348;SDS011;5974;42.710;27.258;2023-06-14T08:42:45;5.90;;;3.63;;
12348;SDS011;5974;42.710;27.258;2023-06-14T08:45:16;3.47;;;2.70;;
12348;SDS011;5974;42.710;27.258;2023-06-14T08:47:43;3.37;;;3.10;;
12348;SDS011;5974;42.710;27.258;2023-06-14T08:50:12;3.47;;;3.00;;
12348;SDS011;5974;42.710;27.258;2023-06-14T08:52:41;3.27;;;3.07;;
12348;SDS011;5974;42.710;27.258;2023-06-14T08:55:16;3.23;;;3.03;;
12348;SDS011;5974;42.710;27.258;2023-06-14T08:57:45;3.10;;;2.90;;
12348;SDS011;5974;42.710;27.258;2023-06-14T09:00:13;3.93;;;2.90;;
12348;SDS011;5974;42.710;27.258;2023-06-14T09:02:40;4.80;;;3.07;;
12348;SDS011;5974;42.710;27.258;2023-06-14T09:05:08;3.63;;;3.30;;
12348;SDS011;5974;42.710;27.258;2023-06-14T09:07:37;4.50;;;3.03;;
12348;SDS011;5974;42.710;27.258;2023-06-14T09:10:07;3.37;;;3.17;;
12348;SDS011;5974;42.710;27.258;2023-06-14T09:12:35;3.37;;;3.10;;
12348;SDS011;5974;42.710;27.258;2023-06-14T09:15:02;3.17;;;2.97;;
12348;SDS011;5974;42.710;27.258;2023-06-14T09:17:32;3.40;;;3.10;;
12348;SDS011;5974;42.710;27.258;2023-06-14T09:20:00;3.43;;;3.13;;
12348;SDS011;5974;42.710;27.258;2023-06-14T09:22:31;4.43;;;3.13;;
12348;SDS011;5974;42.710;27.258;2023-06-14T09:25:00;5.93;;;3.20;;
12348;SDS011;5974;42.710;27.258;2023-06-14T09:27:28;3.23;;;3.03;;
12348;SDS011;5974;42.710;27.258;2023-06-14T09:29:55;5.30;;;3.23;;
12348;SDS011;5974;42.710;27.258;2023-06-14T09:32:22;3.40;;;3.10;;
12348;SDS011;5974;42.710;27.258;2023-06-14T09:34:49;3.13;;;2.93;;
12348;SDS011;5974;42.710;27.258;2023-06-14T09:37:26;3.17;;;2.87;;
12348;SDS011;5974;42.710;27.258;2023-06-14T09:39:55;3.37;;;3.07;;
12348;SDS011;5974;42.710;27.258;2023-06-14T09:42:23;3.10;;;2.90;;
12348;SDS011;5974;42.710;27.258;2023-06-14T09:44:51;7.23;;;2.90;;
12348;SDS011;5974;42.710;27.258;2023-06-14T09:47:20;3.10;;;2.90;;
12348;SDS011;5974;42.710;27.258;2023-06-14T09:49:47;3.10;;;2.80;;
12348;SDS011;5974;42.710;27.258;2023-06-14T09:52:15;4.60;;;3.00;;
12348;SDS011;5974;42.710;27.258;2023-06-14T09:54:44;3.50;;;3.17;;
12348;SDS011;5974;42.710;27.258;2023-06-14T09:57:13;4.37;;;3.23;;
12348;SDS011;5974;42.710;27.258;2023-06-14T09:59:43;3.10;;;2.90;;
12348;SDS011;5974;42.710;27.258;2023-06-14T10:02:11;3.07;;;2.80;;
12348;SDS011;5974;42.710;27.258;2023-06-14T10:04:54;3.30;;;3.00;;
12348;SDS011;5974;42.710;27.258;2023-06-14T10:07:26;3.07;;;2.80;;
12348;SDS011;5974;42.710;27.258;2023-06-14T10:09:56;2.77;;;2.60;;
12348;SDS011;5974;42.710;27.258;2023-06-14T10:12:24;5.00;;;3.00;;
12348;SDS011;5974;42.710;27.258;2023-06-14T10:14:53;5.57;;;3.23;;
12348;SDS011;5974;42.710;27.258;2023-06-14T10:17:23;6.03;;;3.00;;
12348;SDS011;5974;42.710;27.258;2023-06-14T10:20:02;4.50;;;3.10;;
12348;SDS011;5974;42.710;27.258;2023-06-14T10:22:38;3.40;;;3.10;;
12348;SDS011;5974;42.710;27.258;2023-06-14T10:25:12;3.40;;;3.10;;
12348;SDS011;5974;42.710;27.258;2023-06-14T10:27:52;4.00;;;2.87;;
12348;SDS011;5974;42.710;27.258;2023-06-14T10:30:21;5.33;;;3.30;;
12348;SDS011;5974;42.710;27.258;2023-06-14T10:33:04;6.13;;;2.83;;
12348;SDS011;5974;42.710;27.258;2023-06-14T10:35:32;3.83;;;3.00;;
12348;SDS011;5974;42.710;27.258;2023-06-14T10:38:09;3.13;;;2.70;;
12348;SDS011;5974;42.710;27.258;2023-06-14T10:40:37;2.70;;;2.43;;
12348;SDS011;5974;42.710;27.258;2023-06-14T10:46:14;3.70;;;2.77;;
12348;SDS011;5974;42.710;27.258;2023-06-14T10:48:41;3.40;;;2.83;;
12348;SDS011;5974;42.710;27.258;2023-06-14T10:51:15;3.20;;;2.23;;
12348;SDS011;5974;42.710;27.258;2023-06-14T10:53:45;2.97;;;2.67;;
12348;SDS011;5974;42.710;27.258;2023-06-14T10:56:28;3.47;;;2.40;;
12348;SDS011;5974;42.710;27.258;2023-06-14T10:58:56;3.30;;;2.40;;
12348;SDS011;5974;42.710;27.258;2023-06-14T11:01:31;3.63;;;2.47;;
12348;SDS011;5974;42.710;27.258;2023-06-14T11:04:09;3.13;;;2.33;;
12348;SDS011;5974;42.710;27.258;2023-06-14T11:06:44;5.43;;;2.73;;
12348;SDS011;5974;42.710;27.258;2023-06-14T11:12:11;2.63;;;2.40;;
12348;SDS011;5974;42.710;27.258;2023-06-14T11:14:39;2.20;;;2.00;;
12348;SDS011;5974;42.710;27.258;2023-06-14T11:17:07;2.57;;;2.37;;
12348;SDS011;5974;42.710;27.258;2023-06-14T11:19:34;2.60;;;2.50;;
12348;SDS011;5974;42.710;27.258;2023-06-14T11:22:01;4.33;;;2.20;;
12348;SDS011;5974;42.710;27.258;2023-06-14T11:24:28;2.50;;;2.40;;
12348;SDS011;5974;42.710;27.258;2023-06-14T11:26:55;4.60;;;2.07;;
12348;SDS011;5974;42.710;27.258;2023-06-14T11:29:23;4.27;;;2.00;;
12348;SDS011;5974;42.710;27.258;2023-06-14T11:31:50;2.57;;;2.10;;
12348;SDS011;5974;42.710;27.258;2023-06-14T11:34:18;2.03;;;1.97;;
12348;SDS011;5974;42.710;27.258;2023-06-14T11:36:46;2.70;;;2.20;;
12348;SDS011;5974;42.710;27.258;2023-06-14T11:39:13;4.07;;;2.20;;
12348;SDS011;5974;42.710;27.258;2023-06-14T11:41:41;2.90;;;2.37;;
12348;SDS011;5974;42.710;27.258;2023-06-14T11:44:09;2.50;;;2.30;;
12348;SDS011;5974;42.710;27.258;2023-06-14T11:46:37;2.17;;;2.07;;
12348;SDS011;5974;42.710;27.258;2023-06-14T11:49:04;2.27;;;2.17;;
12348;SDS011;5974;42.710;27.258;2023-06-14T11:51:36;2.50;;;2.30;;
12348;SDS011;5974;42.710;27.258;2023-06-14T11:54:03;2.17;;;2.03;;
12348;SDS011;5974;42.710;27.258;2023-06-14T11:56:32;2.60;;;2.40;;
12348;SDS011;5974;42.710;27.258;2023-06-14T11:58:59;3.23;;;2.33;;
12348;SDS011;5974;42.710;27.258;2023-06-14T12:01:26;4.50;;;2.23;;
12348;SDS011;5974;42.710;27.258;2023-06-14T12:03:53;2.67;;;2.33;;
12348;SDS011;5974;42.710;27.258;2023-06-14T12:06:27;3.13;;;2.17;;
12348;SDS011;5974;42.710;27.258;2023-06-14T12:08:59;2.20;;;2.10;;
12348;SDS011;5974;42.710;27.258;2023-06-14T12:11:31;3.97;;;2.30;;
12348;SDS011;5974;42.710;27.258;2023-06-14T12:13:59;2.40;;;2.20;;
12348;SDS011;5974;42.710;27.258;2023-06-14T12:16:29;2.80;;;2.20;;
12348;SDS011;5974;42.710;27.258;2023-06-14T12:19:00;2.40;;;2.20;;
12348;SDS011;5974;42.710;27.258;2023-06-14T12:21:28;2.50;;;2.30;;
12348;SDS011;5974;42.710;27.258;2023-06-14T12:23:55;2.30;;;2.10;;
12348;SDS011;5974;42.710;27.258;2023-06-14T12:26:23;2.23;;;2.07;;
12348;SDS011;5974;42.710;27.258;2023-06-14T12:28:52;2.50;;;2.30;;
12348;SDS011;5974;42.710;27.258;2023-06-14T12:31:19;2.20;;;2.03;;
12348;SDS011;5974;42.710;27.258;2023-06-14T12:33:46;2.63;;;2.20;;
12348;SDS011;5974;42.710;27.258;2023-06-14T12:36:14;2.17;;;2.07;;
12348;SDS011;5974;42.710;27.258;2023-06-14T12:38:41;2.43;;;2.23;;
12348;SDS011;5974;42.710;27.258;2023-06-14T12:41:09;2.30;;;2.20;;
12348;SDS011;5974;42.710;27.258;2023-06-14T12:43:37;2.60;;;2.20;;
12348;SDS011;5974;42.710;27.258;2023-06-14T12:46:04;2.97;;;2.13;;
12348;SDS011;5974;42.710;27.258;2023-06-14T12:48:31;2.00;;;1.90;;
12348;SDS011;5974;42.710;27.258;2023-06-14T12:50:59;4.00;;;2.30;;
12348;SDS011;5974;42.710;27.258;2023-06-14T12:53:26;2.33;;;2.23;;
12348;SDS011;5974;42.710;27.258;2023-06-14T12:55:53;2.47;;;2.27;;
12348;SDS011;5974;42.710;27.258;2023-06-14T12:58:20;2.67;;;2.47;;
12348;SDS011;5974;42.710;27.258;2023-06-14T13:00:50;2.57;;;2.20;;
12348;SDS011;5974;42.710;27.258;2023-06-14T13:03:17;2.33;;;2.23;;
12348;SDS011;5974;42.710;27.258;2023-06-14T13:05:44;3.57;;;2.30;;
12348;SDS011;5974;42.710;27.258;2023-06-14T13:08:11;2.73;;;2.10;;
12348;SDS011;5974;42.710;27.258;2023-06-14T13:10:38;2.53;;;2.10;;
12348;SDS011;5974;42.710;27.258;2023-06-14T13:13:05;3.13;;;2.07;;
12348;SDS011;5974;42.710;27.258;2023-06-14T13:15:32;3.43;;;2.20;;
12348;SDS011;5974;42.710;27.258;2023-06-14T13:18:01;2.40;;;2.20;;
12348;SDS011;5974;42.710;27.258;2023-06-14T13:20:28;2.50;;;2.30;;
12348;SDS011;5974;42.710;27.258;2023-06-14T13:22:55;2.07;;;1.97;;
12348;SDS011;5974;42.710;27.258;2023-06-14T13:25:21;9.50;;;2.30;;
12348;SDS011;5974;42.710;27.258;2023-06-14T13:27:48;2.00;;;1.90;;
12348;SDS011;5974;42.710;27.258;2023-06-14T13:30:15;1.90;;;1.80;;
12348;SDS011;5974;42.710;27.258;2023-06-14T13:32:42;2.47;;;1.80;;
12348;SDS011;5974;42.710;27.258;2023-06-14T13:35:11;1.97;;;1.87;;
12348;SDS011;5974;42.710;27.258;2023-06-14T13:37:37;2.07;;;1.90;;
12348;SDS011;5974;42.710;27.258;2023-06-14T13:40:05;4.00;;;2.07;;
12348;SDS011;5974;42.710;27.258;2023-06-14T13:42:33;2.10;;;1.90;;
12348;SDS011;5974;42.710;27.258;2023-06-14T13:45:01;2.23;;;2.00;;
12348;SDS011;5974;42.710;27.258;2023-06-14T13:47:28;2.27;;;2.17;;
12348;SDS011;5974;42.710;27.258;2023-06-14T13:49:55;2.17;;;1.93;;
12348;SDS011;5974;42.710;27.258;2023-06-14T13:52:23;4.60;;;2.10;;
12348;SDS011;5974;42.710;27.258;2023-06-14T13:54:50;1.90;;;1.80;;
12348;SDS011;5974;42.710;27.258;2023-06-14T13:57:17;2.30;;;1.90;;
12348;SDS011;5974;42.710;27.258;2023-06-14T13:59:44;2.50;;;1.77;;
12348;SDS011;5974;42.710;27.258;2023-06-14T14:02:11;2.00;;;1.90;;
12348;SDS011;5974;42.710;27.258;2023-06-14T14:04:39;4.03;;;2.10;;
12348;SDS011;5974;42.710;27.258;2023-06-14T14:07:06;1.80;;;1.70;;
12348;SDS011;5974;42.710;27.258;2023-06-14T14:09:35;3.40;;;1.80;;
12348;SDS011;5974;42.710;27.258;2023-06-14T14:12:03;1.77;;;1.67;;
12348;SDS011;5974;42.710;27.258;2023-06-14T14:14:31;2.53;;;2.27;;
12348;SDS011;5974;42.710;27.258;2023-06-14T14:16:58;2.30;;;2.10;;
12348;SDS011;5974;42.710;27.258;2023-06-14T14:19:25;2.00;;;1.77;;
12348;SDS011;5974;42.710;27.258;2023-06-14T14:21:52;4.60;;;2.13;;
12348;SDS011;5974;42.710;27.258;2023-06-14T14:24:19;2.20;;;2.10;;
12348;SDS011;5974;42.710;27.258;2023-06-14T14:26:48;1.90;;;1.80;;
12348;SDS011;5974;42.710;27.258;2023-06-14T14:29:15;2.30;;;1.70;;
12348;SDS011;5974;42.710;27.258;2023-06-14T14:31:42;2.80;;;1.80;;
12348;SDS011;5974;42.710;27.258;2023-06-14T14:34:09;2.10;;;2.00;;
12348;SDS011;5974;42.710;27.258;2023-06-14T14:36:36;2.10;;;1.90;;
12348;SDS011;5974;42.710;27.258;2023-06-14T14:39:07;2.00;;;1.90;;
12348;SDS011;5974;42.710;27.258;2023-06-14T14:41:34;2.20;;;2.10;;
12348;SDS011;5974;42.710;27.258;2023-06-14T14:44:04;19.80;;;3.50;;
12348;SDS011;5974;42.710;27.258;2023-06-14T14:46:31;5.00;;;2.00;;
12348;SDS011;5974;42.710;27.258;2023-06-14T14:48:58;9.80;;;2.83;;
12348;SDS011;5974;42.710;27.258;2023-06-14T14:51:25;2.60;;;1.90;;
12348;SDS011;5974;42.710;27.258;2023-06-14T14:53:52;1.87;;;1.77;;
12348;SDS011;5974;42.710;27.258;2023-06-14T14:56:19;2.03;;;1.93;;
12348;SDS011;5974;42.710;27.258;2023-06-14T14:58:47;2.47;;;2.33;;